createdAt,value
2023-03-05T00:02:07.057Z,102097.28
2023-03-05T00:04:33.876Z,102101.91
2023-03-05T00:07:00.450Z,102093.59
2023-03-05T00:09:27.096Z,102100.66
2023-03-05T00:11:53.867Z,102099.22
2023-03-05T00:14:20.575Z,102093.00
2023-03-05T00:16:47.661Z,102099.84
2023-03-05T00:19:14.616Z,102086.16
2023-03-05T00:21:42.673Z,102086.25
2023-03-05T00:24:16.558Z,102085.22
2023-03-05T00:26:44.922Z,102077.06
2023-03-05T00:29:15.496Z,102072.69
2023-03-05T00:31:44.909Z,102071.53
2023-03-05T00:34:14.680Z,102070.59
2023-03-05T00:36:49.282Z,102070.97
2023-03-05T00:39:21.290Z,102068.25
2023-03-05T00:41:48.711Z,102060.47
2023-03-05T00:44:15.690Z,102064.00
2023-03-05T00:46:42.376Z,102053.88
2023-03-05T00:49:08.934Z,102059.88
2023-03-05T00:51:35.685Z,102058.31
2023-03-05T00:54:02.795Z,102054.31
2023-03-05T00:56:29.515Z,102058.44
2023-03-05T00:58:56.762Z,102055.38
2023-03-05T01:01:23.776Z,102061.38
2023-03-05T01:03:50.949Z,102057.03
2023-03-05T01:06:18.706Z,102047.72
2023-03-05T01:08:46.054Z,102047.94
2023-03-05T01:11:14.085Z,102049.69
2023-03-05T01:13:40.963Z,102041.09
2023-03-05T01:16:08.108Z,102037.59
2023-03-05T01:18:34.976Z,102031.78
2023-03-05T01:21:01.645Z,102032.34
2023-03-05T01:23:28.216Z,102028.09
2023-03-05T01:25:57.073Z,102031.16
2023-03-05T01:28:23.911Z,102015.56
2023-03-05T01:30:50.955Z,102015.03
2023-03-05T01:33:17.989Z,102014.44
2023-03-05T01:35:47.383Z,102012.00
2023-03-05T01:38:15.001Z,102006.31
2023-03-05T01:40:43.093Z,102005.50
2023-03-05T01:43:12.573Z,101997.13
2023-03-05T01:46:00.032Z,102000.44
2023-03-05T01:48:27.252Z,101988.84
2023-03-05T01:50:54.446Z,101989.94
2023-03-05T01:53:21.138Z,101992.44
2023-03-05T01:55:47.642Z,101988.81
2023-03-05T01:58:14.553Z,101984.78
2023-03-05T02:00:47.760Z,101982.00
2023-03-05T02:03:14.918Z,101976.53
2023-03-05T02:05:44.387Z,101964.63
2023-03-05T02:08:20.366Z,101966.41
2023-03-05T02:10:50.596Z,101959.34
2023-03-05T02:13:23.226Z,101960.19
2023-03-05T02:15:51.768Z,101952.97
2023-03-05T02:18:19.957Z,101952.66
2023-03-05T02:20:54.135Z,101948.94
2023-03-05T02:23:22.633Z,101941.31
2023-03-05T02:25:49.471Z,101943.69
2023-03-05T02:28:15.989Z,101945.13
2023-03-05T02:30:42.934Z,101933.84
2023-03-05T02:33:10.339Z,101934.47
2023-03-05T02:35:37.145Z,101935.91
2023-03-05T02:38:03.786Z,101935.00
2023-03-05T02:40:30.344Z,101926.41
2023-03-05T02:42:57.154Z,101929.19
2023-03-05T02:45:24.239Z,101925.88
2023-03-05T02:47:50.850Z,101922.38
2023-03-05T02:50:17.625Z,101921.56
2023-03-05T02:52:44.211Z,101911.13
2023-03-05T02:55:14.161Z,101907.50
2023-03-05T02:57:41.999Z,101898.09
2023-03-05T03:00:09.409Z,101901.28
2023-03-05T03:02:36.079Z,101904.56
2023-03-05T03:05:05.365Z,101899.41
2023-03-05T03:07:33.680Z,101895.47
2023-03-05T03:10:00.252Z,101897.03
2023-03-05T03:12:26.775Z,101889.84
2023-03-05T03:14:53.360Z,101881.06
2023-03-05T03:17:20.347Z,101883.56
2023-03-05T03:19:46.976Z,101880.47
2023-03-05T03:22:15.496Z,101878.72
2023-03-05T03:24:43.248Z,101880.47
2023-03-05T03:27:10.606Z,101877.16
2023-03-05T03:29:37.656Z,101873.53
2023-03-05T03:32:04.749Z,101868.38
2023-03-05T03:34:31.930Z,101869.28
2023-03-05T03:36:58.492Z,101864.34
2023-03-05T03:39:25.527Z,101865.78
2023-03-05T03:41:53.626Z,101860.34
2023-03-05T03:44:21.688Z,101858.03
2023-03-05T03:46:49.852Z,101853.91
2023-03-05T03:49:22.284Z,101849.53
2023-03-05T03:51:50.454Z,101844.19
2023-03-05T03:54:18.205Z,101834.75
2023-03-05T03:56:45.243Z,101838.06
2023-03-05T03:59:12.693Z,101835.50
2023-03-05T04:01:39.270Z,101838.91
2023-03-05T04:04:06.530Z,101825.97
2023-03-05T04:06:34.191Z,101827.81
2023-03-05T04:09:00.780Z,101825.16
2023-03-05T04:11:27.352Z,101819.75
2023-03-05T04:13:53.940Z,101819.75
2023-03-05T04:16:20.772Z,101814.09
2023-03-05T04:18:47.694Z,101823.28
2023-03-05T04:21:14.487Z,101817.41
2023-03-05T04:23:41.463Z,101818.09
2023-03-05T04:26:08.276Z,101812.22
2023-03-05T04:28:34.932Z,101814.81
2023-03-05T04:31:01.751Z,101812.94
2023-03-05T04:33:28.467Z,101800.00
2023-03-05T04:35:55.157Z,101793.91
2023-03-05T04:38:21.866Z,101794.53
2023-03-05T04:40:48.891Z,101793.69
2023-03-05T04:43:15.442Z,101786.66
2023-03-05T04:45:43.640Z,101788.88
2023-03-05T04:48:11.459Z,101798.28
2023-03-05T04:50:38.643Z,101784.94
2023-03-05T04:53:06.268Z,101778.84
2023-03-05T04:55:33.138Z,101792.81
2023-03-05T04:57:59.904Z,101787.72
2023-03-05T05:00:26.768Z,101768.56
2023-03-05T05:02:53.883Z,101775.16
2023-03-05T05:05:24.748Z,101768.38
2023-03-05T05:07:58.324Z,101776.13
2023-03-05T05:10:26.590Z,101772.81
2023-03-05T05:12:53.928Z,101773.50
2023-03-05T05:15:21.021Z,101762.44
2023-03-05T05:17:47.778Z,101767.81
2023-03-05T05:20:16.205Z,101757.50
2023-03-05T05:22:43.168Z,101766.66
2023-03-05T05:25:10.455Z,101765.72
2023-03-05T05:27:39.166Z,101756.31
2023-03-05T05:30:06.834Z,101757.06
2023-03-05T05:32:33.947Z,101745.28
2023-03-05T05:35:00.795Z,101749.19
2023-03-05T05:37:27.696Z,101740.13
2023-03-05T05:39:54.365Z,101742.59
2023-03-05T05:42:22.777Z,101739.19
2023-03-05T05:44:50.384Z,101737.03
2023-03-05T05:47:17.912Z,101737.53
2023-03-05T05:49:44.711Z,101736.59
2023-03-05T05:52:11.401Z,101732.38
2023-03-05T05:54:38.659Z,101735.56
2023-03-05T05:57:05.477Z,101748.81
2023-03-05T05:59:32.316Z,101746.59
2023-03-05T06:01:59.404Z,101744.81
2023-03-05T06:04:26.432Z,101738.22
2023-03-05T06:06:53.071Z,101741.16
2023-03-05T06:09:19.791Z,101731.25
2023-03-05T06:11:46.383Z,101732.78
2023-03-05T06:14:13.338Z,101729.47
2023-03-05T06:16:40.765Z,101723.00
2023-03-05T06:19:09.001Z,101727.53
2023-03-05T06:21:35.487Z,101729.13
2023-03-05T06:24:02.099Z,101719.47
2023-03-05T06:26:28.663Z,101717.53
2023-03-05T06:28:55.363Z,101717.69
2023-03-05T06:31:25.586Z,101721.44
2023-03-05T06:33:55.319Z,101726.69
2023-03-05T06:36:23.547Z,101729.41
2023-03-05T06:38:53.243Z,101735.25
2023-03-05T06:41:28.662Z,101729.91
2023-03-05T06:43:55.642Z,101726.16
2023-03-05T06:46:27.484Z,101723.13
2023-03-05T06:48:59.907Z,101719.19
2023-03-05T06:51:35.342Z,101724.63
2023-03-05T06:54:06.679Z,101715.72
2023-03-05T06:56:36.802Z,101717.06
2023-03-05T06:59:03.979Z,101726.63
2023-03-05T07:01:30.715Z,101727.13
2023-03-05T07:04:00.473Z,101714.88
2023-03-05T07:06:29.968Z,101720.91
2023-03-05T07:08:58.266Z,101723.13
2023-03-05T07:11:25.284Z,101721.53
2023-03-05T07:13:51.902Z,101718.59
2023-03-05T07:16:21.981Z,101718.28
2023-03-05T07:18:49.127Z,101722.94
2023-03-05T07:21:18.810Z,101717.09
2023-03-05T07:23:46.231Z,101722.50
2023-03-05T07:26:13.276Z,101712.91
2023-03-05T07:28:39.830Z,101713.16
2023-03-05T07:31:11.225Z,101721.16
2023-03-05T07:33:37.859Z,101715.84
2023-03-05T07:36:07.897Z,101716.25
2023-03-05T07:38:35.090Z,101716.13
2023-03-05T07:41:08.636Z,101718.81
2023-03-05T07:43:35.858Z,101710.00
2023-03-05T07:46:07.848Z,101713.91
2023-03-05T07:48:34.906Z,101712.16
2023-03-05T07:51:07.599Z,101708.25
2023-03-05T07:53:34.425Z,101705.31
2023-03-05T07:56:01.063Z,101708.13
2023-03-05T07:58:27.702Z,101701.88
2023-03-05T08:00:54.273Z,101695.50
2023-03-05T08:03:20.981Z,101698.44
2023-03-05T08:05:47.696Z,101699.22
2023-03-05T08:08:14.512Z,101697.00
2023-03-05T08:10:41.019Z,101701.50
2023-03-05T08:13:07.703Z,101697.28
2023-03-05T08:15:34.286Z,101692.53
2023-03-05T08:18:00.885Z,101686.41
2023-03-05T08:20:27.811Z,101682.41
2023-03-05T08:22:54.372Z,101690.28
2023-03-05T08:25:21.019Z,101682.41
2023-03-05T08:27:48.370Z,101671.53
2023-03-05T08:30:21.655Z,101676.38
2023-03-05T08:32:51.421Z,101671.66
2023-03-05T08:35:17.977Z,101676.31
2023-03-05T08:37:44.631Z,101664.31
2023-03-05T08:40:11.778Z,101665.97
2023-03-05T08:42:38.458Z,101665.63
2023-03-05T08:45:05.391Z,101671.16
2023-03-05T08:47:32.017Z,101660.63
2023-03-05T08:49:58.701Z,101662.38
2023-03-05T08:52:27.293Z,101657.75
2023-03-05T08:54:53.994Z,101659.81
2023-03-05T08:57:20.594Z,101645.16
2023-03-05T08:59:47.559Z,101643.03
2023-03-05T09:02:14.463Z,101656.13
2023-03-05T09:04:41.151Z,101643.19
2023-03-05T09:07:08.011Z,101644.94
2023-03-05T09:09:34.579Z,101648.53
2023-03-05T09:12:02.067Z,101644.28
2023-03-05T09:14:29.113Z,101640.59
2023-03-05T09:16:57.249Z,101636.69
2023-03-05T09:19:24.474Z,101633.59
2023-03-05T09:21:51.200Z,101639.44
2023-03-05T09:24:17.949Z,101636.31
2023-03-05T09:26:45.102Z,101622.75
2023-03-05T09:29:12.450Z,101625.75
2023-03-05T09:31:39.842Z,101628.38
2023-03-05T09:34:08.268Z,101618.44
2023-03-05T09:36:34.867Z,101622.56
2023-03-05T09:39:01.557Z,101622.31
2023-03-05T09:41:51.416Z,101621.00
2023-03-05T09:44:41.622Z,101619.75
2023-03-05T09:47:27.093Z,101612.41
2023-03-05T09:50:12.494Z,101603.09
2023-03-05T09:52:55.480Z,101602.13
2023-03-05T09:55:32.057Z,101603.63
2023-03-05T09:58:06.002Z,101603.44
2023-03-05T10:00:44.977Z,101629.13
2023-03-05T10:03:15.116Z,101615.38
2023-03-05T10:05:47.788Z,101600.16
2023-03-05T10:08:19.053Z,101608.13
2023-03-05T10:10:52.965Z,101605.25
2023-03-05T10:13:27.337Z,101604.56
2023-03-05T10:16:28.343Z,101589.91
2023-03-05T10:19:02.908Z,101601.63
2023-03-05T10:21:40.193Z,101595.84
2023-03-05T10:24:27.269Z,101595.06
2023-03-05T10:27:12.087Z,101592.53
2023-03-05T10:29:53.741Z,101589.03
2023-03-05T10:32:20.465Z,101585.31
2023-03-05T10:35:06.758Z,101569.00
2023-03-05T10:37:48.635Z,101575.56
2023-03-05T10:40:57.986Z,101564.31
2023-03-05T10:43:55.457Z,101554.81
2023-03-05T10:46:31.143Z,101558.78
2023-03-05T10:49:05.645Z,101552.06
2023-03-05T10:51:41.010Z,101557.81
2023-03-05T10:54:25.385Z,101555.38
2023-03-05T10:57:14.742Z,101551.22
2023-03-05T10:59:47.677Z,101547.84
2023-03-05T11:02:14.345Z,101548.66
2023-03-05T11:04:41.026Z,101541.69
2023-03-05T11:07:16.843Z,101545.25
2023-03-05T11:10:04.235Z,101526.41
2023-03-05T11:12:38.635Z,101534.31
2023-03-05T11:15:12.351Z,101530.06
2023-03-05T11:17:44.876Z,101537.44
2023-03-05T11:20:29.075Z,101526.38
2023-03-05T11:23:13.167Z,101518.44
2023-03-05T11:26:02.343Z,101515.19
2023-03-05T11:28:37.230Z,101509.72
2023-03-05T11:31:16.011Z,101510.41
2023-03-05T11:34:04.833Z,101509.16
2023-03-05T11:36:35.571Z,101504.78
2023-03-05T11:39:07.980Z,101504.81
2023-03-05T11:41:51.694Z,101505.34
2023-03-05T11:44:55.886Z,101493.00
2023-03-05T11:47:49.769Z,101489.31
2023-03-05T11:50:16.502Z,101492.84
2023-03-05T11:52:48.193Z,101491.13
2023-03-05T11:55:22.160Z,101490.03
2023-03-05T11:57:57.552Z,101479.66
2023-03-05T12:00:28.813Z,101479.38
2023-03-05T12:02:58.589Z,101473.34
2023-03-05T12:05:28.087Z,101471.19
2023-03-05T12:08:00.378Z,101468.41
2023-03-05T12:10:27.270Z,101457.88
2023-03-05T12:13:23.299Z,101457.88
2023-03-05T12:16:06.003Z,101448.28
2023-03-05T12:18:41.293Z,101444.22
2023-03-05T12:21:21.596Z,101437.25
2023-03-05T12:23:54.452Z,101440.56
2023-03-05T12:27:02.102Z,101429.09
2023-03-05T12:29:38.663Z,101435.91
2023-03-05T12:32:51.775Z,101429.75
2023-03-05T12:35:36.842Z,101422.53
2023-03-05T12:38:27.118Z,101420.59
2023-03-05T12:41:22.422Z,101414.31
2023-03-05T12:44:07.346Z,101403.66
2023-03-05T12:46:39.674Z,101402.94
2023-03-05T12:49:26.981Z,101393.22
2023-03-05T12:51:59.237Z,101389.47
2023-03-05T12:54:33.997Z,101389.88
2023-03-05T12:57:24.164Z,101375.06
2023-03-05T13:00:01.543Z,101368.38
2023-03-05T13:02:31.954Z,101368.59
2023-03-05T13:05:03.346Z,101357.66
2023-03-05T13:07:30.095Z,101347.56
2023-03-05T13:09:58.860Z,101343.84
2023-03-05T13:12:28.814Z,101346.16
2023-03-05T13:14:57.827Z,101343.56
2023-03-05T13:17:56.510Z,101351.75
2023-03-05T13:20:42.682Z,101339.00
2023-03-05T13:23:20.670Z,101341.84
2023-03-05T13:26:15.292Z,101332.41
2023-03-05T13:28:44.880Z,101328.19
2023-03-05T13:31:22.501Z,101333.41
2023-03-05T13:33:59.322Z,101324.56
2023-03-05T13:36:27.750Z,101317.88
2023-03-05T13:38:54.926Z,101311.25
2023-03-05T13:41:27.664Z,101311.25
2023-03-05T13:44:00.125Z,101297.91
2023-03-05T13:46:38.678Z,101304.88
2023-03-05T13:49:26.163Z,101295.19
2023-03-05T13:51:55.173Z,101289.16
2023-03-05T13:54:23.777Z,101296.72
2023-03-05T13:56:58.749Z,101294.81
2023-03-05T13:59:31.085Z,101287.69
2023-03-05T14:02:01.214Z,101281.31
2023-03-05T14:04:40.585Z,101269.88
2023-03-05T14:07:39.336Z,101271.69
2023-03-05T14:10:28.885Z,101265.16
2023-03-05T14:12:57.373Z,101259.19
2023-03-05T14:15:35.392Z,101262.97
2023-03-05T14:18:11.418Z,101260.59
2023-03-05T14:20:40.227Z,101263.13
2023-03-05T14:23:37.012Z,101258.28
2023-03-05T14:26:29.580Z,101247.44
2023-03-05T14:29:13.469Z,101258.91
2023-03-05T14:32:20.023Z,101247.56
2023-03-05T14:34:52.684Z,101238.22
2023-03-05T14:37:27.290Z,101241.22
2023-03-05T14:39:57.697Z,101235.31
2023-03-05T14:42:38.379Z,101237.91
2023-03-05T14:45:24.140Z,101227.34
2023-03-05T14:47:53.301Z,101221.09
2023-03-05T14:50:25.880Z,101214.06
2023-03-05T14:53:01.691Z,101211.56
2023-03-05T14:55:32.355Z,101212.91
2023-03-05T14:58:12.243Z,101206.56
2023-03-05T15:00:39.144Z,101208.56
2023-03-05T15:03:05.751Z,101198.59
2023-03-05T15:05:33.209Z,101193.00
2023-03-05T15:08:00.760Z,101191.94
2023-03-05T15:10:27.778Z,101190.50
2023-03-05T15:12:54.260Z,101185.97
2023-03-05T15:15:21.889Z,101189.00
2023-03-05T15:17:52.212Z,101188.16
2023-03-05T15:20:20.458Z,101192.97
2023-03-05T15:22:47.611Z,101180.53
2023-03-05T15:25:15.398Z,101176.84
2023-03-05T15:27:42.298Z,101166.84
2023-03-05T15:30:18.172Z,101160.84
2023-03-05T15:32:44.929Z,101164.25
2023-03-05T15:35:11.486Z,101163.56
2023-03-05T15:37:41.110Z,101150.88
2023-03-05T15:40:08.730Z,101149.41
2023-03-05T15:42:35.473Z,101140.56
2023-03-05T15:45:02.120Z,101140.31
2023-03-05T15:47:29.438Z,101131.13
2023-03-05T15:49:56.803Z,101140.41
2023-03-05T15:52:24.031Z,101137.44
2023-03-05T15:54:50.653Z,101130.06
2023-03-05T15:57:21.737Z,101129.81
2023-03-05T15:59:49.428Z,101136.63
2023-03-05T16:02:16.042Z,101135.84
2023-03-05T16:04:42.604Z,101130.09
2023-03-05T16:07:09.625Z,101116.34
2023-03-05T16:09:41.144Z,101119.13
2023-03-05T16:12:12.768Z,101118.13
2023-03-05T16:14:40.554Z,101112.28
2023-03-05T16:17:07.884Z,101105.88
2023-03-05T16:19:40.236Z,101102.97
2023-03-05T16:22:07.045Z,101106.16
2023-03-05T16:24:33.973Z,101098.94
2023-03-05T16:27:00.729Z,101098.53
2023-03-05T16:29:30.753Z,101097.59
2023-03-05T16:31:58.619Z,101104.69
2023-03-05T16:34:25.473Z,101091.19
2023-03-05T16:36:52.822Z,101089.31
2023-03-05T16:39:20.899Z,101099.81
2023-03-05T16:41:48.462Z,101087.00
2023-03-05T16:44:16.064Z,101088.09
2023-03-05T16:46:53.221Z,101077.88
2023-03-05T16:49:21.292Z,101085.22
2023-03-05T16:51:51.015Z,101083.59
2023-03-05T16:54:18.099Z,101087.69
2023-03-05T16:56:45.325Z,101069.41
2023-03-05T16:59:11.932Z,101074.06
2023-03-05T17:01:38.558Z,101071.59
2023-03-05T17:04:05.305Z,101077.88
2023-03-05T17:06:33.538Z,101071.06
2023-03-05T17:09:00.546Z,101070.94
2023-03-05T17:11:27.409Z,101069.44
2023-03-05T17:13:54.745Z,101065.63
2023-03-05T17:16:22.609Z,101064.78
2023-03-05T17:18:49.803Z,101069.97
2023-03-05T17:21:16.965Z,101064.78
2023-03-05T17:23:44.013Z,101072.13
2023-03-05T17:26:13.502Z,101063.69
2023-03-05T17:28:40.243Z,101062.34
2023-03-05T17:31:07.315Z,101058.75
2023-03-05T17:33:35.534Z,101063.00
2023-03-05T17:36:02.785Z,101066.16
2023-03-05T17:38:30.190Z,101061.09
2023-03-05T17:40:56.860Z,101054.69
2023-03-05T17:43:24.291Z,101063.16
2023-03-05T17:45:51.325Z,101062.31
2023-03-05T17:48:18.467Z,101062.88
2023-03-05T17:50:46.361Z,101064.25
2023-03-05T17:53:13.002Z,101054.69
2023-03-05T17:55:40.051Z,101058.78
2023-03-05T17:58:06.969Z,101062.47
2023-03-05T18:00:37.259Z,101055.66
2023-03-05T18:03:04.857Z,101058.53
2023-03-05T18:05:31.809Z,101057.69
2023-03-05T18:07:59.993Z,101058.91
2023-03-05T18:10:27.538Z,101058.78
2023-03-05T18:12:54.501Z,101056.59
2023-03-05T18:15:23.407Z,101060.56
2023-03-05T18:17:50.703Z,101051.16
2023-03-05T18:20:30.880Z,101060.56
2023-03-05T18:23:00.282Z,101052.66
2023-03-05T18:25:32.552Z,101055.25
2023-03-05T18:28:05.537Z,101045.59
2023-03-05T18:30:33.027Z,101048.97
2023-03-05T18:33:00.052Z,101048.16
2023-03-05T18:35:28.847Z,101044.91
2023-03-05T18:37:56.010Z,101053.59
2023-03-05T18:40:26.098Z,101045.16
2023-03-05T18:42:52.835Z,101048.28
2023-03-05T18:45:21.329Z,101046.22
2023-03-05T18:47:54.087Z,101050.84
2023-03-05T18:50:21.982Z,101042.66
2023-03-05T18:52:49.667Z,101033.41
2023-03-05T18:55:28.207Z,101032.88
2023-03-05T18:57:55.460Z,101027.41
2023-03-05T19:00:28.091Z,101017.88
2023-03-05T19:02:56.016Z,101022.06
2023-03-05T19:05:25.236Z,101016.91
2023-03-05T19:07:52.214Z,101014.59
2023-03-05T19:10:19.187Z,101015.53
2023-03-05T19:13:34.597Z,101010.50
2023-03-05T19:16:11.101Z,101012.25
2023-03-05T19:19:16.799Z,101011.44
2023-03-05T19:21:47.196Z,101004.47
2023-03-05T19:24:15.304Z,101005.28
2023-03-05T19:26:43.077Z,100997.66
2023-03-05T19:29:09.875Z,101003.63
2023-03-05T19:31:37.362Z,100995.34
2023-03-05T19:34:04.197Z,100992.06
2023-03-05T19:36:32.358Z,100991.78
2023-03-05T19:38:59.217Z,100990.59
2023-03-05T19:41:27.615Z,100979.56
2023-03-05T19:43:54.269Z,100973.44
2023-03-05T19:46:21.035Z,100973.16
2023-03-05T19:48:47.691Z,100975.75
2023-03-05T19:51:19.221Z,100973.16
2023-03-05T19:53:46.469Z,100969.63
2023-03-05T19:56:15.801Z,100967.06
2023-03-05T19:58:45.422Z,100966.09
2023-03-05T20:01:17.536Z,100964.06
2023-03-05T20:03:48.970Z,100953.19
2023-03-05T20:06:16.129Z,100958.50
2023-03-05T20:08:43.023Z,100955.22
2023-03-05T20:11:11.706Z,100954.94
2023-03-05T20:13:39.315Z,100954.50
2023-03-05T20:16:17.115Z,100948.25
2023-03-05T20:18:44.377Z,100949.47
2023-03-05T20:21:11.367Z,100950.03
2023-03-05T20:23:37.963Z,100946.47
2023-03-05T20:26:06.624Z,100940.22
2023-03-05T20:28:33.707Z,100941.16
2023-03-05T20:31:01.699Z,100933.25
2023-03-05T20:33:28.945Z,100936.09
2023-03-05T20:35:56.730Z,100938.81
2023-03-05T20:38:25.492Z,100930.09
2023-03-05T20:40:59.082Z,100936.34
2023-03-05T20:43:28.044Z,100926.28
2023-03-05T20:45:56.989Z,100928.16
2023-03-05T20:48:25.439Z,100925.06
2023-03-05T20:50:52.155Z,100921.41
2023-03-05T20:53:19.940Z,100926.66
2023-03-05T20:55:46.741Z,100923.97
2023-03-05T20:58:14.623Z,100920.41
2023-03-05T21:00:41.830Z,100916.47
2023-03-05T21:03:09.519Z,100913.59
2023-03-05T21:05:36.970Z,100901.75
2023-03-05T21:08:04.500Z,100906.78
2023-03-05T21:10:31.571Z,100903.00
2023-03-05T21:13:00.794Z,100899.03
2023-03-05T21:15:28.968Z,100893.06
2023-03-05T21:17:56.376Z,100899.59
2023-03-05T21:20:27.831Z,100896.06
2023-03-05T21:22:55.494Z,100889.25
2023-03-05T21:25:30.912Z,100891.19
2023-03-05T21:28:04.099Z,100887.09
2023-03-05T21:30:38.251Z,100884.09
2023-03-05T21:33:10.528Z,100887.63
2023-03-05T21:35:38.008Z,100881.66
2023-03-05T21:38:06.334Z,100881.94
2023-03-05T21:40:35.404Z,100874.72
2023-03-05T21:43:03.643Z,100872.97
2023-03-05T21:45:30.716Z,100875.41
2023-03-05T21:47:58.701Z,100872.41
2023-03-05T21:50:26.261Z,100867.94
2023-03-05T21:52:53.514Z,100865.59
2023-03-05T21:56:14.366Z,100861.63
2023-03-05T21:58:50.275Z,100857.69
2023-03-05T22:01:19.498Z,100861.50
2023-03-05T22:03:46.257Z,100845.69
2023-03-05T22:06:14.583Z,100846.78
2023-03-05T22:08:41.626Z,100845.66
2023-03-05T22:11:12.741Z,100847.00
2023-03-05T22:13:40.160Z,100839.41
2023-03-05T22:16:09.154Z,100841.53
2023-03-05T22:18:36.794Z,100827.53
2023-03-05T22:21:04.269Z,100831.28
2023-03-05T22:23:34.484Z,100830.75
2023-03-05T22:26:04.195Z,100829.94
2023-03-05T22:28:31.792Z,100824.38
2023-03-05T22:30:58.741Z,100820.97
2023-03-05T22:33:25.943Z,100814.19
2023-03-05T22:35:52.603Z,100815.00
2023-03-05T22:38:20.089Z,100811.66
2023-03-05T22:40:48.324Z,100801.88
2023-03-05T22:43:15.982Z,100796.03
2023-03-05T22:45:42.927Z,100794.81
2023-03-05T22:48:09.928Z,100794.56
2023-03-05T22:50:38.145Z,100789.63
2023-03-05T22:53:04.789Z,100788.03
2023-03-05T22:55:31.367Z,100793.19
2023-03-05T22:57:57.960Z,100784.75
2023-03-05T23:00:26.583Z,100783.75
2023-03-05T23:02:53.672Z,100782.97
2023-03-05T23:05:20.912Z,100779.16
2023-03-05T23:07:47.604Z,100775.91
2023-03-05T23:10:18.785Z,100772.91
2023-03-05T23:12:50.116Z,100768.41
2023-03-05T23:15:32.879Z,100772.22
2023-03-05T23:17:59.642Z,100769.50
2023-03-05T23:20:31.109Z,100764.03
2023-03-05T23:22:58.406Z,100762.66
2023-03-05T23:25:27.995Z,100754.25
2023-03-05T23:27:55.464Z,100756.41
2023-03-05T23:30:26.941Z,100756.66
2023-03-05T23:32:56.692Z,100747.53
2023-03-05T23:35:24.993Z,100758.94
2023-03-05T23:37:53.370Z,100747.50
2023-03-05T23:40:26.166Z,100749.53
2023-03-05T23:42:53.489Z,100740.41
2023-03-05T23:45:21.846Z,100743.91
2023-03-05T23:47:49.941Z,100740.63
2023-03-05T23:50:18.730Z,100735.16
2023-03-05T23:52:45.920Z,100732.28
2023-03-05T23:55:21.003Z,100732.34
2023-03-05T23:57:48.561Z,100736.25
